Terminal Aerodrome Forecast
Issued by NWS

Home | Current Version | Previous Version | Text Only | Print | Product List | Glossary On
Versions: 1 2 3 4 5 6 7 8 9 10 11 12 13
724
FTUS46 KSEW 080520
TAFBFI
TAF
KBFI 080520Z 0806/0906 VRB03KT P6SM SCT050 SCT080 BKN200
     FM080900 00000KT P6SM BKN200
     FM081200 00000KT P6SM SCT015 SCT200
      TEMPO 0812/0816 4SM BR SCT009 BKN250
     FM082000 VRB03KT P6SM SCT250=

USA.gov is the U.S. government's official web portal to all federal, state and local government web resources and services.